createdAt,value
2023-03-22T00:01:23.928Z,100695.13
2023-03-22T00:03:52.788Z,100691.91
2023-03-22T00:06:20.412Z,100686.22
2023-03-22T00:08:51.350Z,100687.50
2023-03-22T00:11:20.647Z,100696.22
2023-03-22T00:13:47.880Z,100696.81
2023-03-22T00:16:15.616Z,100668.25
2023-03-22T00:18:42.669Z,100675.13
2023-03-22T00:21:15.811Z,100679.91
2023-03-22T00:23:44.111Z,100676.56
2023-03-22T00:26:13.333Z,100679.56
2023-03-22T00:28:40.752Z,100678.09
2023-03-22T00:31:09.240Z,100668.69
2023-03-22T00:33:37.054Z,100670.56
2023-03-22T00:36:08.691Z,100665.66
2023-03-22T00:38:43.692Z,100648.78
2023-03-22T00:41:19.688Z,100645.16
2023-03-22T00:43:48.807Z,100636.56
2023-03-22T00:46:18.418Z,100645.72
2023-03-22T00:48:45.768Z,100637.56
2023-03-22T00:51:14.974Z,100634.75
2023-03-22T00:53:43.639Z,100627.25
2023-03-22T00:56:15.787Z,100625.53
2023-03-22T00:58:43.790Z,100628.34
2023-03-22T01:01:14.039Z,100634.72
2023-03-22T01:03:42.808Z,100614.06
2023-03-22T01:06:11.104Z,100616.53
2023-03-22T01:08:39.446Z,100618.78
2023-03-22T01:11:08.502Z,100615.34
2023-03-22T01:13:37.853Z,100612.94
2023-03-22T01:16:07.155Z,100605.47
2023-03-22T01:18:34.916Z,100599.22
2023-03-22T01:21:02.244Z,100599.81
2023-03-22T01:23:29.364Z,100595.94
2023-03-22T01:25:56.366Z,100586.31
2023-03-22T01:28:26.460Z,100586.88
2023-03-22T01:30:55.192Z,100597.59
2023-03-22T01:33:22.538Z,100587.16
2023-03-22T01:35:49.596Z,100597.69
2023-03-22T01:38:16.702Z,100599.78
2023-03-22T01:40:43.856Z,100604.88
2023-03-22T01:43:15.740Z,100595.50
2023-03-22T01:45:46.399Z,100593.47
2023-03-22T01:48:34.809Z,100592.28
2023-03-22T01:51:20.613Z,100590.63
2023-03-22T01:53:55.302Z,100595.75
2023-03-22T01:56:25.989Z,100572.25
2023-03-22T01:58:55.188Z,100579.22
2023-03-22T02:01:23.889Z,100564.47
2023-03-22T02:04:03.330Z,100570.59
2023-03-22T02:06:32.439Z,100561.13
2023-03-22T02:08:59.521Z,100558.19
2023-03-22T02:11:33.506Z,100556.66
2023-03-22T02:14:23.481Z,100541.88
2023-03-22T02:17:15.573Z,100531.47
2023-03-22T02:20:13.007Z,100539.59
2023-03-22T02:23:07.132Z,100541.69
2023-03-22T02:26:11.161Z,100536.19
2023-03-22T02:28:58.509Z,100535.75
2023-03-22T02:32:05.101Z,100515.00
2023-03-22T02:35:02.949Z,100522.16
2023-03-22T02:38:16.608Z,100527.38
2023-03-22T02:40:49.272Z,100519.69
2023-03-22T02:43:52.961Z,100525.41
2023-03-22T02:46:34.700Z,100520.34
2023-03-22T02:49:31.273Z,100523.56
2023-03-22T02:52:17.556Z,100524.91
2023-03-22T02:55:12.036Z,100525.50
2023-03-22T02:58:40.144Z,100522.25
2023-03-22T03:01:18.407Z,100517.50
2023-03-22T03:03:52.581Z,100500.59
2023-03-22T03:06:25.659Z,100500.91
2023-03-22T03:08:54.530Z,100508.63
2023-03-22T03:11:21.821Z,100503.50
2023-03-22T03:13:49.862Z,100502.47
2023-03-22T03:16:21.131Z,100509.13
2023-03-22T03:18:56.215Z,100503.31
2023-03-22T03:21:45.289Z,100510.38
2023-03-22T03:24:18.923Z,100506.78
2023-03-22T03:26:57.774Z,100510.38
2023-03-22T03:29:46.724Z,100497.56
2023-03-22T03:32:38.386Z,100493.19
2023-03-22T03:35:23.066Z,100501.16
2023-03-22T03:37:54.874Z,100507.59
2023-03-22T03:40:36.378Z,100496.13
2023-03-22T03:43:06.248Z,100509.75
2023-03-22T03:45:34.992Z,100511.72
2023-03-22T03:48:08.128Z,100515.91
2023-03-22T03:50:35.351Z,100507.38
2023-03-22T03:53:03.227Z,100517.47
2023-03-22T03:55:31.673Z,100507.53
2023-03-22T03:57:58.763Z,100513.91
2023-03-22T04:00:25.756Z,100505.69
2023-03-22T04:02:52.804Z,100506.78
2023-03-22T04:05:19.911Z,100502.88
2023-03-22T04:07:46.913Z,100504.75
2023-03-22T04:10:14.026Z,100497.81
2023-03-22T04:12:40.950Z,100494.91
2023-03-22T04:15:09.012Z,100487.50
2023-03-22T04:17:36.025Z,100486.75
2023-03-22T04:20:06.028Z,100489.56
2023-03-22T04:22:34.570Z,100498.59
2023-03-22T04:25:02.021Z,100482.28
2023-03-22T04:27:29.055Z,100492.81
2023-03-22T04:29:56.180Z,100485.81
2023-03-22T04:32:23.411Z,100505.00
2023-03-22T04:34:51.808Z,100490.88
2023-03-22T04:37:22.584Z,100503.34
2023-03-22T04:39:49.534Z,100499.44
2023-03-22T04:42:16.570Z,100493.38
2023-03-22T04:44:43.629Z,100495.28
2023-03-22T04:47:10.864Z,100485.66
2023-03-22T04:49:38.236Z,100499.22
2023-03-22T04:52:05.410Z,100487.38
2023-03-22T04:54:33.111Z,100476.66
2023-03-22T04:57:01.008Z,100491.28
2023-03-22T04:59:28.065Z,100480.22
2023-03-22T05:01:55.183Z,100484.94
2023-03-22T05:04:22.811Z,100486.44
2023-03-22T05:06:49.955Z,100482.06
2023-03-22T05:09:17.310Z,100490.00
2023-03-22T05:11:44.519Z,100470.97
2023-03-22T05:14:11.958Z,100464.63
2023-03-22T05:16:41.715Z,100485.81
2023-03-22T05:19:14.803Z,100474.75
2023-03-22T05:21:44.127Z,100474.75
2023-03-22T05:24:11.963Z,100476.09
2023-03-22T05:26:42.334Z,100462.13
2023-03-22T05:29:11.187Z,100477.56
2023-03-22T05:31:40.345Z,100458.19
2023-03-22T05:34:08.157Z,100471.22
2023-03-22T05:36:36.624Z,100459.38
2023-03-22T05:39:04.381Z,100462.63
2023-03-22T05:41:31.798Z,100456.81
2023-03-22T05:43:58.797Z,100465.72
2023-03-22T05:46:26.162Z,100461.41
2023-03-22T05:48:53.337Z,100460.44
2023-03-22T05:51:20.373Z,100454.34
2023-03-22T05:53:48.537Z,100448.16
2023-03-22T05:56:16.135Z,100450.81
2023-03-22T05:59:32.182Z,100463.72
2023-03-22T06:01:59.208Z,100457.16
2023-03-22T06:04:26.164Z,100451.59
2023-03-22T06:06:53.977Z,100444.75
2023-03-22T06:09:21.366Z,100449.84
2023-03-22T06:11:48.408Z,100446.25
2023-03-22T06:14:15.948Z,100443.31
2023-03-22T06:16:43.123Z,100447.09
2023-03-22T06:19:10.378Z,100454.13
2023-03-22T06:21:37.352Z,100460.41
2023-03-22T06:24:05.034Z,100450.63
2023-03-22T06:26:32.032Z,100455.88
2023-03-22T06:28:59.283Z,100469.53
2023-03-22T06:31:26.250Z,100467.84
2023-03-22T06:33:55.791Z,100463.34
2023-03-22T06:36:23.022Z,100473.06
2023-03-22T06:38:49.980Z,100460.69
2023-03-22T06:41:16.922Z,100460.19
2023-03-22T06:43:43.974Z,100462.53
2023-03-22T06:46:11.300Z,100464.63
2023-03-22T06:48:38.411Z,100462.53
2023-03-22T06:51:06.086Z,100468.94
2023-03-22T06:53:33.176Z,100472.19
2023-03-22T06:56:00.374Z,100477.00
2023-03-22T06:58:27.463Z,100466.53
2023-03-22T07:00:57.199Z,100462.56
2023-03-22T07:03:24.425Z,100476.16
2023-03-22T07:05:51.416Z,100475.06
2023-03-22T07:08:18.372Z,100468.00
2023-03-22T07:10:51.303Z,100466.34
2023-03-22T07:13:18.346Z,100472.06
2023-03-22T07:15:45.465Z,100460.72
2023-03-22T07:18:12.778Z,100474.06
2023-03-22T07:20:41.763Z,100479.63
2023-03-22T07:23:10.887Z,100481.00
2023-03-22T07:25:38.047Z,100474.00
2023-03-22T07:28:06.996Z,100496.13
2023-03-22T07:30:37.838Z,100489.16
2023-03-22T07:33:07.222Z,100491.41
2023-03-22T07:35:34.603Z,100489.09
2023-03-22T07:38:01.781Z,100493.50
2023-03-22T07:40:28.879Z,100485.13
2023-03-22T07:42:56.114Z,100490.53
2023-03-22T07:45:23.779Z,100493.75
2023-03-22T07:47:50.796Z,100508.94
2023-03-22T07:50:19.621Z,100493.56
2023-03-22T07:52:47.393Z,100493.47
2023-03-22T07:55:14.949Z,100493.69
2023-03-22T07:57:42.065Z,100487.56
2023-03-22T08:00:13.363Z,100502.16
2023-03-22T08:02:40.447Z,100488.59
2023-03-22T08:05:08.304Z,100483.47
2023-03-22T08:07:35.360Z,100484.97
2023-03-22T08:10:03.332Z,100479.81
2023-03-22T08:12:32.484Z,100476.72
2023-03-22T08:14:59.453Z,100480.34
2023-03-22T08:17:26.652Z,100460.94
2023-03-22T08:19:56.721Z,100460.94
2023-03-22T08:22:29.945Z,100453.16
2023-03-22T08:24:56.992Z,100459.22
2023-03-22T08:27:24.015Z,100464.06
2023-03-22T08:29:51.115Z,100459.31
2023-03-22T08:32:18.531Z,100462.66
2023-03-22T08:34:46.025Z,100452.50
2023-03-22T08:37:13.686Z,100458.69
2023-03-22T08:39:40.930Z,100444.97
2023-03-22T08:42:07.892Z,100460.63
2023-03-22T08:44:34.862Z,100451.91
2023-03-22T08:47:03.254Z,100462.91
2023-03-22T08:49:31.437Z,100461.47
2023-03-22T08:51:58.442Z,100457.59
2023-03-22T08:54:28.108Z,100451.84
2023-03-22T08:56:55.178Z,100449.66
2023-03-22T08:59:22.130Z,100452.03
2023-03-22T09:01:49.523Z,100450.84
2023-03-22T09:04:18.649Z,100450.66
2023-03-22T09:06:47.016Z,100448.63
2023-03-22T09:09:14.733Z,100459.41
2023-03-22T09:11:42.859Z,100464.22
2023-03-22T09:14:10.802Z,100453.03
2023-03-22T09:16:37.950Z,100463.41
2023-03-22T09:19:05.006Z,100462.66
2023-03-22T09:21:31.997Z,100469.25
2023-03-22T09:23:59.044Z,100473.69
2023-03-22T09:26:27.142Z,100467.13
2023-03-22T09:28:54.259Z,100458.44
2023-03-22T09:31:21.443Z,100458.84
2023-03-22T09:33:48.431Z,100453.53
2023-03-22T09:36:15.881Z,100458.53
2023-03-22T09:38:43.011Z,100464.06
2023-03-22T09:41:38.425Z,100468.22
2023-03-22T09:44:22.635Z,100469.25
2023-03-22T09:46:55.557Z,100466.69
2023-03-22T09:49:50.493Z,100461.38
2023-03-22T09:52:19.934Z,100462.94
2023-03-22T09:54:47.476Z,100464.16
2023-03-22T09:57:40.738Z,100469.53
2023-03-22T10:00:27.147Z,100466.59
2023-03-22T10:03:17.269Z,100466.28
2023-03-22T10:05:57.825Z,100466.25
2023-03-22T10:08:39.677Z,100474.19
2023-03-22T10:11:30.274Z,100463.69
2023-03-22T10:14:35.357Z,100457.53
2023-03-22T10:17:10.212Z,100449.28
2023-03-22T10:20:08.965Z,100452.50
2023-03-22T10:22:43.977Z,100455.84
2023-03-22T10:25:19.771Z,100448.66
2023-03-22T10:27:50.697Z,100453.78
2023-03-22T10:30:30.508Z,100434.53
2023-03-22T10:33:03.472Z,100440.88
2023-03-22T10:35:32.172Z,100445.00
2023-03-22T10:38:04.530Z,100431.66
2023-03-22T10:40:34.914Z,100429.00
2023-03-22T10:43:24.253Z,100435.34
2023-03-22T10:45:53.956Z,100437.53
2023-03-22T10:48:33.243Z,100423.44
2023-03-22T10:51:01.473Z,100406.78
2023-03-22T10:53:40.349Z,100402.75
2023-03-22T10:56:15.760Z,100409.69
2023-03-22T10:58:43.575Z,100404.47
2023-03-22T11:01:36.940Z,100416.03
2023-03-22T11:04:04.086Z,100404.00
2023-03-22T11:06:35.362Z,100427.94
2023-03-22T11:09:19.917Z,100427.91
2023-03-22T11:11:59.263Z,100428.13
2023-03-22T11:14:42.395Z,100420.63
2023-03-22T11:17:14.619Z,100426.34
2023-03-22T11:19:55.765Z,100435.84
2023-03-22T11:22:33.311Z,100424.94
2023-03-22T11:25:02.387Z,100429.06
2023-03-22T11:27:33.137Z,100421.59
2023-03-22T11:30:20.365Z,100416.47
2023-03-22T11:32:47.781Z,100433.41
2023-03-22T11:35:16.655Z,100425.81
2023-03-22T11:37:47.630Z,100440.09
2023-03-22T11:40:22.776Z,100431.69
2023-03-22T11:42:55.678Z,100433.94
2023-03-22T11:45:36.156Z,100421.44
2023-03-22T11:48:08.735Z,100432.69
2023-03-22T11:50:39.868Z,100444.94
2023-03-22T11:53:14.790Z,100432.03
2023-03-22T11:55:43.149Z,100437.78
2023-03-22T11:58:39.152Z,100447.31
2023-03-22T12:01:11.006Z,100449.03
2023-03-22T12:03:41.874Z,100430.78
2023-03-22T12:06:33.455Z,100431.41
2023-03-22T12:09:41.943Z,100451.91
2023-03-22T12:12:17.912Z,100416.75
2023-03-22T12:14:52.775Z,100430.44
2023-03-22T12:17:48.059Z,100422.69
2023-03-22T12:20:43.445Z,100415.63
2023-03-22T12:23:18.401Z,100414.41
2023-03-22T12:25:55.164Z,100407.94
2023-03-22T12:28:29.110Z,100413.41
2023-03-22T12:30:58.599Z,100394.50
2023-03-22T12:33:35.264Z,100399.78
2023-03-22T12:36:05.372Z,100414.09
2023-03-22T12:38:49.271Z,100403.44
2023-03-22T12:41:24.723Z,100391.56
2023-03-22T12:44:28.345Z,100392.19
2023-03-22T12:47:03.563Z,100398.13
2023-03-22T12:49:55.113Z,100392.25
2023-03-22T12:52:49.171Z,100391.50
2023-03-22T12:55:33.419Z,100387.97
2023-03-22T12:58:01.722Z,100382.34
2023-03-22T13:00:33.407Z,100385.16
2023-03-22T13:03:17.343Z,100389.16
2023-03-22T13:06:02.062Z,100389.66
2023-03-22T13:09:15.916Z,100391.22
2023-03-22T13:12:08.237Z,100385.78
2023-03-22T13:14:53.248Z,100388.94
2023-03-22T13:17:23.035Z,100392.19
2023-03-22T13:19:59.312Z,100384.56
2023-03-22T13:22:31.960Z,100380.47
2023-03-22T13:25:14.771Z,100376.59
2023-03-22T13:28:26.456Z,100373.28
2023-03-22T13:30:57.843Z,100364.75
2023-03-22T13:33:27.777Z,100376.63
2023-03-22T13:35:56.927Z,100368.13
2023-03-22T13:38:35.628Z,100365.00
2023-03-22T13:41:34.674Z,100363.69
2023-03-22T13:44:21.478Z,100362.50
2023-03-22T13:46:58.120Z,100365.53
2023-03-22T13:49:31.347Z,100360.38
2023-03-22T13:52:00.961Z,100353.75
2023-03-22T13:54:42.705Z,100360.94
2023-03-22T13:57:49.217Z,100353.19
2023-03-22T14:00:34.298Z,100339.19
2023-03-22T14:03:28.743Z,100341.38
2023-03-22T14:06:24.265Z,100345.75
2023-03-22T14:08:59.192Z,100330.56
2023-03-22T14:11:38.074Z,100338.88
2023-03-22T14:14:22.361Z,100339.22
2023-03-22T14:16:53.786Z,100327.69
2023-03-22T14:19:25.102Z,100330.41
